createdAt,value
2022-12-23T00:00:18.735Z,95697.13
2022-12-23T00:02:47.367Z,95693.72
2022-12-23T00:05:16.960Z,95689.97
2022-12-23T00:07:45.466Z,95691.78
2022-12-23T00:10:13.566Z,95692.06
2022-12-23T00:12:58.668Z,95688.38
2022-12-23T00:15:26.558Z,95684.47
2022-12-23T00:17:54.491Z,95682.56
2022-12-23T00:20:23.889Z,95672.84
2022-12-23T00:23:06.800Z,95670.41
2022-12-23T00:25:41.517Z,95659.47
2022-12-23T00:28:11.751Z,95662.34
2022-12-23T00:30:39.802Z,95659.47
2022-12-23T00:33:07.719Z,95659.56
2022-12-23T00:35:36.954Z,95658.25
2022-12-23T00:38:04.897Z,95661.66
2022-12-23T00:40:50.926Z,95658.66
2022-12-23T00:43:18.971Z,95661.91
2022-12-23T00:45:46.930Z,95664.31
2022-12-23T00:48:32.754Z,95663.56
2022-12-23T00:51:02.146Z,95674.84
2022-12-23T00:53:30.044Z,95667.50
2022-12-23T00:55:57.979Z,95673.53
2022-12-23T00:58:26.603Z,95664.38
2022-12-23T01:01:11.870Z,95677.16
2022-12-23T01:03:57.293Z,95674.97
2022-12-23T01:06:26.603Z,95673.34
2022-12-23T01:08:54.495Z,95671.78
2022-12-23T01:11:22.416Z,95671.72
2022-12-23T01:13:50.311Z,95670.06
2022-12-23T01:16:18.306Z,95671.00
2022-12-23T01:18:46.527Z,95673.75
2022-12-23T01:21:14.786Z,95668.56
2022-12-23T01:23:44.067Z,95662.94
2022-12-23T01:26:12.901Z,95653.03
2022-12-23T01:28:40.933Z,95659.50
2022-12-23T01:31:11.097Z,95644.72
2022-12-23T01:33:39.032Z,95648.59
2022-12-23T01:36:08.644Z,95649.72
2022-12-23T01:38:36.746Z,95651.41
2022-12-23T01:41:06.368Z,95651.03
2022-12-23T01:43:51.956Z,95643.31
2022-12-23T01:46:20.002Z,95644.41
2022-12-23T01:48:50.511Z,95642.97
2022-12-23T01:51:22.009Z,95633.94
2022-12-23T01:53:52.079Z,95638.84
2022-12-23T01:56:24.667Z,95639.66
2022-12-23T01:58:55.501Z,95641.38
2022-12-23T02:01:41.087Z,95639.81
2022-12-23T02:04:11.142Z,95643.69
2022-12-23T02:06:58.386Z,95636.41
2022-12-23T02:09:28.175Z,95628.72
2022-12-23T02:12:34.360Z,95636.97
2022-12-23T02:15:31.309Z,95626.91
2022-12-23T02:18:11.053Z,95625.72
2022-12-23T02:21:05.072Z,95622.44
2022-12-23T02:24:08.109Z,95634.00
2022-12-23T02:27:11.417Z,95625.28
2022-12-23T02:30:27.135Z,95623.91
2022-12-23T02:33:25.990Z,95634.41
2022-12-23T02:36:00.309Z,95626.91
2022-12-23T02:38:31.531Z,95621.84
2022-12-23T02:41:07.492Z,95610.13
2022-12-23T02:43:42.309Z,95612.00
2022-12-23T02:46:13.754Z,95614.53
2022-12-23T02:48:47.330Z,95614.28
2022-12-23T02:51:16.759Z,95613.25
2022-12-23T02:53:48.029Z,95613.25
2022-12-23T02:56:16.472Z,95611.13
2022-12-23T02:58:48.935Z,95602.69
2022-12-23T03:01:17.544Z,95598.69
2022-12-23T03:03:47.358Z,95596.25
2022-12-23T03:06:21.352Z,95593.22
2022-12-23T03:08:51.268Z,95594.31
2022-12-23T03:11:19.618Z,95573.81
2022-12-23T03:14:04.011Z,95579.91
2022-12-23T03:16:38.651Z,95575.81
2022-12-23T03:19:12.870Z,95567.81
2022-12-23T03:21:44.937Z,95572.19
2022-12-23T03:24:20.311Z,95569.19
2022-12-23T03:26:51.884Z,95566.69
2022-12-23T03:29:24.495Z,95564.63
2022-12-23T03:31:54.118Z,95556.41
2022-12-23T03:34:26.760Z,95559.75
2022-12-23T03:36:57.156Z,95549.81
2022-12-23T03:39:29.273Z,95545.91
2022-12-23T03:42:00.327Z,95536.03
2022-12-23T03:44:31.842Z,95532.75
2022-12-23T03:47:04.571Z,95525.25
2022-12-23T03:49:36.441Z,95522.63
2022-12-23T03:52:06.965Z,95517.78
2022-12-23T03:54:38.314Z,95524.28
2022-12-23T03:57:07.047Z,95527.06
2022-12-23T03:59:36.472Z,95518.41
2022-12-23T04:02:09.227Z,95539.75
2022-12-23T04:04:49.072Z,95545.53
2022-12-23T04:07:18.963Z,95543.63
2022-12-23T04:09:47.807Z,95542.13
2022-12-23T04:12:16.040Z,95542.25
2022-12-23T04:14:47.404Z,95547.97
2022-12-23T04:17:15.811Z,95555.13
2022-12-23T04:19:46.451Z,95558.63
2022-12-23T04:22:14.376Z,95551.91
2022-12-23T04:24:42.843Z,95552.34
2022-12-23T04:27:12.390Z,95547.47
2022-12-23T04:29:40.313Z,95543.56
2022-12-23T04:32:08.938Z,95538.81
2022-12-23T04:34:37.150Z,95535.22
2022-12-23T04:37:06.448Z,95542.31
2022-12-23T04:39:34.373Z,95541.41
2022-12-23T04:42:02.289Z,95546.41
2022-12-23T04:44:30.191Z,95550.72
2022-12-23T04:46:58.147Z,95557.75
2022-12-23T04:49:26.199Z,95564.69
2022-12-23T04:51:54.090Z,95555.47
2022-12-23T04:54:23.329Z,95561.19
2022-12-23T04:56:51.258Z,95554.84
2022-12-23T04:59:19.116Z,95553.53
2022-12-23T05:01:47.236Z,95545.94
2022-12-23T05:04:15.330Z,95544.31
2022-12-23T05:06:43.317Z,95543.09
2022-12-23T05:09:11.295Z,95548.25
2022-12-23T05:11:42.575Z,95550.94
2022-12-23T05:14:10.763Z,95548.78
2022-12-23T05:16:38.740Z,95549.94
2022-12-23T05:19:06.755Z,95552.84
2022-12-23T05:21:34.653Z,95547.72
2022-12-23T05:24:02.537Z,95543.41
2022-12-23T05:26:30.508Z,95544.72
2022-12-23T05:28:59.755Z,95539.75
2022-12-23T05:31:27.784Z,95529.56
2022-12-23T05:33:58.371Z,95527.41
2022-12-23T05:36:28.806Z,95524.19
2022-12-23T05:38:57.483Z,95522.47
2022-12-23T05:41:25.396Z,95515.88
2022-12-23T05:43:53.274Z,95518.47
2022-12-23T05:46:26.589Z,95516.41
2022-12-23T05:48:54.898Z,95506.28
2022-12-23T05:51:22.852Z,95525.78
2022-12-23T05:53:50.753Z,95503.69
2022-12-23T05:56:18.631Z,95506.63
2022-12-23T05:58:46.545Z,95515.03
2022-12-23T06:01:15.543Z,95522.84
2022-12-23T06:03:44.904Z,95516.81
2022-12-23T06:06:14.019Z,95520.25
2022-12-23T06:08:41.977Z,95527.91
2022-12-23T06:11:09.871Z,95526.59
2022-12-23T06:13:37.797Z,95530.69
2022-12-23T06:16:06.578Z,95535.19
2022-12-23T06:18:34.520Z,95531.84
2022-12-23T06:21:03.832Z,95525.78
2022-12-23T06:23:31.710Z,95532.00
2022-12-23T06:26:00.972Z,95525.31
2022-12-23T06:28:29.384Z,95517.50
2022-12-23T06:30:58.372Z,95518.53
2022-12-23T06:33:26.427Z,95532.91
2022-12-23T06:35:54.499Z,95533.69
2022-12-23T06:38:23.795Z,95527.34
2022-12-23T06:40:51.759Z,95533.84
2022-12-23T06:43:19.684Z,95526.63
2022-12-23T06:45:48.536Z,95534.00
2022-12-23T06:48:17.119Z,95530.03
2022-12-23T06:50:45.758Z,95533.88
2022-12-23T06:53:13.790Z,95536.56
2022-12-23T06:55:43.137Z,95534.94
2022-12-23T06:58:11.042Z,95533.84
2022-12-23T07:00:38.919Z,95535.50
2022-12-23T07:03:06.863Z,95542.66
2022-12-23T07:05:37.370Z,95531.97
2022-12-23T07:08:06.364Z,95539.94
2022-12-23T07:10:34.989Z,95538.50
2022-12-23T07:13:04.282Z,95547.09
2022-12-23T07:15:32.189Z,95549.84
2022-12-23T07:18:00.113Z,95540.63
2022-12-23T07:20:28.062Z,95544.94
2022-12-23T07:22:57.117Z,95544.22
2022-12-23T07:25:25.712Z,95562.00
2022-12-23T07:27:54.239Z,95553.75
2022-12-23T07:30:23.903Z,95553.75
2022-12-23T07:32:52.338Z,95560.69
2022-12-23T07:35:20.700Z,95553.59
2022-12-23T07:37:53.160Z,95556.03
2022-12-23T07:40:21.036Z,95564.88
2022-12-23T07:42:49.921Z,95563.63
2022-12-23T07:45:18.063Z,95566.03
2022-12-23T07:47:47.388Z,95566.13
2022-12-23T07:50:15.362Z,95565.56
2022-12-23T07:52:43.233Z,95552.56
2022-12-23T07:55:11.397Z,95560.75
2022-12-23T07:57:40.015Z,95563.19
2022-12-23T08:00:09.606Z,95563.53
2022-12-23T08:02:37.723Z,95564.47
2022-12-23T08:05:08.304Z,95561.19
2022-12-23T08:07:36.282Z,95561.78
2022-12-23T08:10:04.818Z,95558.03
2022-12-23T08:12:32.872Z,95556.72
2022-12-23T08:15:00.777Z,95554.56
2022-12-23T08:17:29.565Z,95567.44
2022-12-23T08:19:57.909Z,95559.09
2022-12-23T08:22:27.209Z,95561.34
2022-12-23T08:24:55.086Z,95566.00
2022-12-23T08:27:22.994Z,95564.34
2022-12-23T08:29:50.864Z,95575.69
2022-12-23T08:32:18.779Z,95577.22
2022-12-23T08:34:46.676Z,95574.78
2022-12-23T08:37:15.071Z,95576.25
2022-12-23T08:39:44.399Z,95584.59
2022-12-23T08:42:12.359Z,95581.53
2022-12-23T08:44:40.277Z,95577.44
2022-12-23T08:47:08.398Z,95585.84
2022-12-23T08:49:36.415Z,95579.63
2022-12-23T08:52:04.697Z,95579.25
2022-12-23T08:54:32.596Z,95595.00
2022-12-23T08:57:01.919Z,95585.75
2022-12-23T08:59:29.825Z,95581.59
2022-12-23T09:01:59.750Z,95582.63
2022-12-23T09:04:27.916Z,95586.09
2022-12-23T09:06:55.818Z,95583.28
2022-12-23T09:09:23.691Z,95574.66
2022-12-23T09:11:51.667Z,95573.50
2022-12-23T09:14:20.942Z,95578.00
2022-12-23T09:16:51.844Z,95578.31
2022-12-23T09:19:19.715Z,95571.00
2022-12-23T09:21:47.761Z,95565.72
2022-12-23T09:24:15.763Z,95564.81
2022-12-23T09:26:43.647Z,95564.16
2022-12-23T09:29:11.571Z,95555.44
2022-12-23T09:31:40.970Z,95554.97
2022-12-23T09:34:12.122Z,95551.63
2022-12-23T09:36:40.027Z,95553.38
2022-12-23T09:39:07.978Z,95545.19
2022-12-23T09:41:50.080Z,95549.09
2022-12-23T09:44:34.504Z,95550.31
2022-12-23T09:47:05.851Z,95546.00
2022-12-23T09:49:34.058Z,95542.09
2022-12-23T09:52:05.686Z,95548.81
2022-12-23T09:54:42.862Z,95543.78
2022-12-23T09:57:19.854Z,95543.22
2022-12-23T09:59:57.216Z,95546.56
2022-12-23T10:02:34.756Z,95550.13
2022-12-23T10:05:06.837Z,95559.94
2022-12-23T10:07:37.129Z,95556.22
2022-12-23T10:10:13.263Z,95556.16
2022-12-23T10:12:43.578Z,95551.56
2022-12-23T10:15:21.564Z,95570.94
2022-12-23T10:17:53.789Z,95559.59
2022-12-23T10:20:27.739Z,95561.88
2022-12-23T10:22:56.891Z,95564.16
2022-12-23T10:25:30.209Z,95556.38
2022-12-23T10:27:58.139Z,95550.38
2022-12-23T10:30:54.013Z,95562.16
2022-12-23T10:33:21.201Z,95563.03
2022-12-23T10:35:57.820Z,95558.00
2022-12-23T10:38:33.960Z,95568.13
2022-12-23T10:41:09.504Z,95573.22
2022-12-23T10:43:45.158Z,95584.59
2022-12-23T10:46:19.187Z,95577.53
2022-12-23T10:48:56.752Z,95593.72
2022-12-23T10:51:27.907Z,95589.38
2022-12-23T10:53:58.006Z,95590.88
2022-12-23T10:56:26.391Z,95588.78
2022-12-23T10:58:57.100Z,95594.41
2022-12-23T11:01:27.285Z,95588.66
2022-12-23T11:04:05.974Z,95594.31
2022-12-23T11:06:37.786Z,95595.81
2022-12-23T11:09:07.132Z,95578.44
2022-12-23T11:11:58.349Z,95574.59
2022-12-23T11:14:34.931Z,95579.94
2022-12-23T11:17:03.296Z,95580.44
2022-12-23T11:19:32.800Z,95576.59
2022-12-23T11:22:01.945Z,95576.41
2022-12-23T11:24:37.969Z,95575.81
2022-12-23T11:27:14.411Z,95573.72
2022-12-23T11:29:46.595Z,95566.31
2022-12-23T11:32:18.201Z,95576.19
2022-12-23T11:34:48.368Z,95564.00
2022-12-23T11:37:26.298Z,95558.44
2022-12-23T11:39:54.484Z,95558.34
2022-12-23T11:42:27.280Z,95557.97
2022-12-23T11:44:55.941Z,95558.91
2022-12-23T11:47:30.866Z,95569.56
2022-12-23T11:50:03.000Z,95566.56
2022-12-23T11:52:31.924Z,95574.88
2022-12-23T11:55:01.344Z,95572.69
2022-12-23T11:57:34.985Z,95570.81
2022-12-23T12:00:04.324Z,95577.75
2022-12-23T12:02:36.519Z,95582.41
2022-12-23T12:05:09.730Z,95587.63
2022-12-23T12:07:37.868Z,95588.78
2022-12-23T12:10:07.056Z,95586.66
2022-12-23T12:12:34.954Z,95593.69
2022-12-23T12:15:02.868Z,95590.41
2022-12-23T12:17:37.031Z,95585.41
2022-12-23T12:20:12.104Z,95581.41
2022-12-23T12:22:43.559Z,95578.16
2022-12-23T12:25:18.312Z,95582.94
2022-12-23T12:27:55.658Z,95584.78
2022-12-23T12:30:32.860Z,95597.06
2022-12-23T12:33:05.200Z,95600.59
2022-12-23T12:35:39.300Z,95591.97
2022-12-23T12:38:14.873Z,95605.78
2022-12-23T12:40:44.835Z,95604.00
2022-12-23T12:43:21.930Z,95615.22
2022-12-23T12:45:54.065Z,95611.63
2022-12-23T12:48:40.065Z,95607.34
2022-12-23T12:51:17.039Z,95602.56
2022-12-23T12:53:58.223Z,95606.06
2022-12-23T12:56:33.121Z,95619.34
2022-12-23T12:59:01.019Z,95611.06
2022-12-23T13:01:39.274Z,95607.59
2022-12-23T13:04:19.058Z,95594.59
2022-12-23T13:06:54.895Z,95600.84
2022-12-23T13:09:30.018Z,95603.34
2022-12-23T13:12:03.314Z,95603.56
2022-12-23T13:14:47.659Z,95610.78
2022-12-23T13:17:20.749Z,95603.16
2022-12-23T13:19:52.551Z,95605.75
2022-12-23T13:22:26.461Z,95603.22
2022-12-23T13:24:57.871Z,95606.56
2022-12-23T13:27:29.508Z,95609.84
2022-12-23T13:30:03.659Z,95612.13
2022-12-23T13:32:48.347Z,95613.78
2022-12-23T13:35:27.269Z,95602.06
2022-12-23T13:38:01.489Z,95600.31
2022-12-23T13:40:36.423Z,95603.44
2022-12-23T13:43:07.630Z,95598.59
2022-12-23T13:45:39.458Z,95599.97
2022-12-23T13:48:19.207Z,95594.63
2022-12-23T13:50:53.950Z,95592.31
2022-12-23T13:53:26.681Z,95580.63
2022-12-23T13:56:06.915Z,95576.53
2022-12-23T13:58:35.074Z,95577.09
2022-12-23T14:01:22.181Z,95577.47
2022-12-23T14:03:51.039Z,95571.69
2022-12-23T14:06:44.058Z,95581.16
2022-12-23T14:09:17.149Z,95579.34
2022-12-23T14:11:45.922Z,95570.97
2022-12-23T14:14:20.485Z,95571.66
2022-12-23T14:16:56.783Z,95567.50
2022-12-23T14:19:38.033Z,95572.34
2022-12-23T14:22:15.111Z,95561.06
2022-12-23T14:25:24.441Z,95572.44
2022-12-23T14:27:57.735Z,95576.28
2022-12-23T14:30:34.940Z,95569.66
2022-12-23T14:33:06.215Z,95574.41
2022-12-23T14:35:56.329Z,95566.19
2022-12-23T14:38:31.980Z,95559.31
2022-12-23T14:41:27.050Z,95565.16
2022-12-23T14:43:59.472Z,95555.25
2022-12-23T14:47:02.958Z,95553.66
2022-12-23T14:49:41.043Z,95543.94
2022-12-23T14:52:46.408Z,95540.91
2022-12-23T14:55:48.632Z,95533.72
2022-12-23T14:58:47.514Z,95534.47
2022-12-23T15:01:18.016Z,95526.06
2022-12-23T15:03:48.550Z,95521.50
2022-12-23T15:06:19.927Z,95519.59
2022-12-23T15:08:49.082Z,95531.44
2022-12-23T15:11:22.488Z,95527.13
2022-12-23T15:13:53.574Z,95539.34
2022-12-23T15:16:29.921Z,95538.56
2022-12-23T15:18:59.573Z,95537.25
2022-12-23T15:21:32.595Z,95555.09
2022-12-23T15:24:00.693Z,95541.72
2022-12-23T15:26:31.827Z,95544.06
2022-12-23T15:29:01.820Z,95550.81
2022-12-23T15:31:33.514Z,95543.28
2022-12-23T15:34:08.874Z,95537.13
2022-12-23T15:36:44.294Z,95540.22
2022-12-23T15:39:19.259Z,95533.63
2022-12-23T15:41:48.453Z,95530.19
2022-12-23T15:44:21.769Z,95525.03
2022-12-23T15:46:50.574Z,95518.72
2022-12-23T15:49:19.582Z,95521.38
2022-12-23T15:52:07.052Z,95529.44
2022-12-23T15:54:37.798Z,95530.06
2022-12-23T15:57:06.065Z,95523.94
2022-12-23T15:59:38.184Z,95521.13
2022-12-23T16:02:32.707Z,95531.91
2022-12-23T16:05:01.283Z,95531.78
2022-12-23T16:07:34.761Z,95511.00
2022-12-23T16:10:05.164Z,95515.91
2022-12-23T16:12:35.590Z,95528.75
2022-12-23T16:15:23.709Z,95523.53
2022-12-23T16:17:51.663Z,95513.63
2022-12-23T16:20:24.290Z,95525.44
2022-12-23T16:22:53.619Z,95527.44
2022-12-23T16:25:24.706Z,95534.41
2022-12-23T16:27:57.010Z,95538.50
2022-12-23T16:30:30.015Z,95540.94
2022-12-23T16:32:59.047Z,95543.41
2022-12-23T16:35:47.076Z,95542.16
2022-12-23T16:38:18.152Z,95540.31
2022-12-23T16:40:47.951Z,95530.41
2022-12-23T16:43:16.879Z,95526.47
2022-12-23T16:45:46.947Z,95520.28
2022-12-23T16:48:20.501Z,95510.03
2022-12-23T16:50:49.485Z,95514.03
2022-12-23T16:53:17.408Z,95522.63
2022-12-23T16:55:52.372Z,95525.03
2022-12-23T16:58:24.731Z,95510.09
2022-12-23T17:00:54.198Z,95517.34
2022-12-23T17:03:22.168Z,95514.91
2022-12-23T17:05:50.080Z,95521.88
2022-12-23T17:08:18.238Z,95515.63
2022-12-23T17:10:46.396Z,95519.81
2022-12-23T17:13:17.165Z,95511.28
2022-12-23T17:15:45.282Z,95518.78
2022-12-23T17:18:17.425Z,95517.59
2022-12-23T17:20:46.420Z,95518.41
2022-12-23T17:23:25.664Z,95510.19
2022-12-23T17:25:53.692Z,95511.09
2022-12-23T17:28:21.695Z,95508.34
2022-12-23T17:30:55.961Z,95508.34
2022-12-23T17:33:29.388Z,95501.03
2022-12-23T17:35:57.281Z,95496.34
2022-12-23T17:38:25.335Z,95498.06
2022-12-23T17:40:55.059Z,95492.38
2022-12-23T17:43:23.206Z,95501.66
2022-12-23T17:45:51.268Z,95497.38
2022-12-23T17:48:22.356Z,95497.34
2022-12-23T17:50:54.667Z,95502.97
2022-12-23T17:53:22.559Z,95508.25
2022-12-23T17:55:50.459Z,95517.41
2022-12-23T17:58:18.334Z,95505.28
2022-12-23T18:00:46.256Z,95505.22
2022-12-23T18:03:22.459Z,95501.00
2022-12-23T18:05:57.261Z,95489.94
2022-12-23T18:08:30.563Z,95486.69
2022-12-23T18:10:59.408Z,95488.03
2022-12-23T18:13:27.303Z,95488.31
2022-12-23T18:15:55.344Z,95480.59
2022-12-23T18:18:32.103Z,95483.16
2022-12-23T18:21:06.726Z,95470.53
2022-12-23T18:23:37.217Z,95471.25
2022-12-23T18:26:05.204Z,95468.09
2022-12-23T18:28:33.153Z,95460.28
2022-12-23T18:31:01.203Z,95462.59
2022-12-23T18:33:30.307Z,95459.34
2022-12-23T18:35:58.507Z,95466.25
2022-12-23T18:38:26.452Z,95457.31
2022-12-23T18:40:56.686Z,95456.00
2022-12-23T18:43:28.075Z,95453.94
2022-12-23T18:45:56.032Z,95452.78
2022-12-23T18:48:23.982Z,95452.09
2022-12-23T18:50:51.929Z,95450.72
2022-12-23T18:53:24.532Z,95444.34
2022-12-23T18:55:55.465Z,95449.22
2022-12-23T18:58:24.437Z,95437.72
2022-12-23T19:00:54.263Z,95420.03
2022-12-23T19:03:23.887Z,95431.72
2022-12-23T19:05:52.726Z,95434.00
2022-12-23T19:08:26.329Z,95440.41
2022-12-23T19:10:56.467Z,95432.25
2022-12-23T19:13:25.017Z,95434.97
2022-12-23T19:15:52.986Z,95428.06
2022-12-23T19:18:22.861Z,95422.06
2022-12-23T19:20:50.927Z,95410.28
2022-12-23T19:23:18.843Z,95406.31
2022-12-23T19:25:54.579Z,95404.91
2022-12-23T19:28:24.451Z,95405.88
2022-12-23T19:30:52.371Z,95396.59
2022-12-23T19:33:20.312Z,95384.88
2022-12-23T19:35:48.204Z,95390.56
2022-12-23T19:38:16.354Z,95385.94
2022-12-23T19:40:44.270Z,95388.34
2022-12-23T19:43:12.222Z,95382.56
2022-12-23T19:45:41.599Z,95376.78
2022-12-23T19:48:09.825Z,95380.91
2022-12-23T19:50:37.747Z,95371.31
2022-12-23T19:53:05.647Z,95377.34
2022-12-23T19:55:33.550Z,95383.38
2022-12-23T19:58:01.500Z,95387.28
2022-12-23T20:00:29.382Z,95387.06
2022-12-23T20:02:59.354Z,95383.38
2022-12-23T20:05:27.574Z,95389.16
2022-12-23T20:07:55.465Z,95384.41
2022-12-23T20:10:23.370Z,95393.13
2022-12-23T20:12:51.362Z,95389.38
2022-12-23T20:15:19.376Z,95392.53
2022-12-23T20:17:47.278Z,95382.22
2022-12-23T20:20:16.638Z,95390.19
2022-12-23T20:22:44.587Z,95380.13
2022-12-23T20:25:12.487Z,95376.06
2022-12-23T20:27:40.366Z,95366.53
2022-12-23T20:30:09.485Z,95368.75
2022-12-23T20:32:37.416Z,95369.44
2022-12-23T20:35:06.550Z,95356.97
2022-12-23T20:37:35.824Z,95359.53
2022-12-23T20:40:03.788Z,95352.78
2022-12-23T20:42:31.695Z,95357.78
2022-12-23T20:44:59.590Z,95355.00
2022-12-23T20:47:27.495Z,95348.03
2022-12-23T20:49:55.360Z,95352.09
2022-12-23T20:52:23.276Z,95360.38
2022-12-23T20:54:52.651Z,95354.09
2022-12-23T20:57:20.733Z,95359.78
2022-12-23T20:59:48.622Z,95356.56
2022-12-23T21:02:16.950Z,95358.72
2022-12-23T21:04:44.969Z,95360.72
2022-12-23T21:07:12.883Z,95357.16
2022-12-23T21:09:40.799Z,95352.84
2022-12-23T21:12:10.079Z,95345.69
2022-12-23T21:14:38.063Z,95338.22
2022-12-23T21:17:05.946Z,95346.34
2022-12-23T21:19:34.865Z,95353.56
2022-12-23T21:22:03.263Z,95347.59
2022-12-23T21:24:31.165Z,95341.06
2022-12-23T21:26:59.095Z,95345.69
2022-12-23T21:29:28.623Z,95343.81
2022-12-23T21:31:56.942Z,95357.03
2022-12-23T21:34:25.083Z,95336.53
2022-12-23T21:36:53.057Z,95347.31
2022-12-23T21:39:21.005Z,95354.25
2022-12-23T21:41:50.988Z,95351.72
2022-12-23T21:44:18.905Z,95351.22
2022-12-23T21:46:50.868Z,95347.41
2022-12-23T21:49:19.028Z,95349.81
2022-12-23T21:51:46.971Z,95343.66
2022-12-23T21:54:14.883Z,95345.72
2022-12-23T21:56:43.200Z,95341.13
2022-12-23T21:59:13.079Z,95337.88
2022-12-23T22:01:41.717Z,95332.75
2022-12-23T22:04:11.340Z,95348.66
2022-12-23T22:06:43.441Z,95335.00
2022-12-23T22:09:13.177Z,95326.66
2022-12-23T22:11:41.222Z,95323.25
2022-12-23T22:14:11.248Z,95316.59
2022-12-23T22:16:39.267Z,95317.66
2022-12-23T22:19:08.699Z,95324.16
2022-12-23T22:21:39.565Z,95327.38
2022-12-23T22:24:08.189Z,95336.78
2022-12-23T22:26:36.650Z,95336.78
2022-12-23T22:29:05.837Z,95317.97
2022-12-23T22:31:37.390Z,95320.69
2022-12-23T22:34:05.765Z,95322.19
2022-12-23T22:36:34.178Z,95314.84
2022-12-23T22:39:04.090Z,95326.16
2022-12-23T22:41:32.459Z,95335.03
2022-12-23T22:44:00.669Z,95332.63
2022-12-23T22:46:29.152Z,95353.09
2022-12-23T22:48:58.698Z,95354.09
2022-12-23T22:51:28.280Z,95358.66
2022-12-23T22:53:56.236Z,95357.28
2022-12-23T22:56:26.515Z,95363.78
2022-12-23T22:58:54.955Z,95365.09
2022-12-23T23:01:24.648Z,95369.69
2022-12-23T23:03:57.421Z,95376.34
2022-12-23T23:06:26.873Z,95372.63
2022-12-23T23:08:55.309Z,95372.44
2022-12-23T23:11:23.619Z,95371.88
2022-12-23T23:13:52.901Z,95380.16
2022-12-23T23:16:20.893Z,95384.38
2022-12-23T23:18:49.047Z,95387.16
2022-12-23T23:21:17.431Z,95405.78
2022-12-23T23:23:45.401Z,95403.47
2022-12-23T23:26:13.592Z,95414.00
2022-12-23T23:28:41.906Z,95425.63
2022-12-23T23:33:59.566Z,95433.63
2022-12-23T23:36:27.510Z,95440.16
2022-12-23T23:38:55.427Z,95461.00
2022-12-23T23:41:24.251Z,95457.19
2022-12-23T23:43:52.323Z,95459.38
2022-12-23T23:46:21.644Z,95467.41
2022-12-23T23:48:49.604Z,95473.31
2022-12-23T23:51:17.584Z,95471.69
2022-12-23T23:53:45.506Z,95482.13
2022-12-23T23:56:13.424Z,95481.22
2022-12-23T23:58:41.370Z,95485.72
